sensor_id;sensor_type;location;lat;lon;timestamp;pressure;altitude;pressure_sealevel;temperature;humidity
71785;BME280;59633;52.266;5.134;2022-08-01T00:02:00;101821.91;;;19.20;93.88
71785;BME280;59633;52.266;5.134;2022-08-01T00:04:25;101822.69;;;19.21;93.13
71785;BME280;59633;52.266;5.134;2022-08-01T00:06:51;101828.28;;;19.19;93.27
71785;BME280;59633;52.266;5.134;2022-08-01T00:09:16;101826.66;;;19.18;93.26
71785;BME280;59633;52.266;5.134;2022-08-01T00:11:41;101826.88;;;19.17;93.76
71785;BME280;59633;52.266;5.134;2022-08-01T00:14:07;101824.47;;;19.15;93.76
71785;BME280;59633;52.266;5.134;2022-08-01T00:16:34;101829.22;;;19.13;94.02
71785;BME280;59633;52.266;5.134;2022-08-01T00:18:59;101830.03;;;19.14;94.01
71785;BME280;59633;52.266;5.134;2022-08-01T00:21:24;101832.13;;;19.12;94.28
71785;BME280;59633;52.266;5.134;2022-08-01T00:23:50;101835.03;;;19.10;94.43
71785;BME280;59633;52.266;5.134;2022-08-01T00:26:15;101836.63;;;19.11;93.69
71785;BME280;59633;52.266;5.134;2022-08-01T00:28:40;101840.59;;;19.08;94.17
71785;BME280;59633;52.266;5.134;2022-08-01T00:31:05;101838.16;;;19.07;93.99
71785;BME280;59633;52.266;5.134;2022-08-01T00:33:31;101835.25;;;19.08;94.25
71785;BME280;59633;52.266;5.134;2022-08-01T00:35:56;101834.47;;;19.08;94.51
71785;BME280;59633;52.266;5.134;2022-08-01T00:38:21;101825.09;;;19.05;94.38
71785;BME280;59633;52.266;5.134;2022-08-01T00:40:47;101825.91;;;19.06;94.07
71785;BME280;59633;52.266;5.134;2022-08-01T00:43:12;101832.25;;;19.05;94.32
71785;BME280;59633;52.266;5.134;2022-08-01T00:45:37;101834.13;;;19.04;94.73
71785;BME280;59633;52.266;5.134;2022-08-01T00:48:03;101831.94;;;19.01;94.67
71785;BME280;59633;52.266;5.134;2022-08-01T00:50:28;101833.53;;;19.02;94.68
71785;BME280;59633;52.266;5.134;2022-08-01T00:52:53;101838.88;;;19.02;94.99
71785;BME280;59633;52.266;5.134;2022-08-01T00:55:19;101837.84;;;19.03;94.70
71785;BME280;59633;52.266;5.134;2022-08-01T00:57:45;101838.53;;;18.99;95.40
71785;BME280;59633;52.266;5.134;2022-08-01T01:00:10;101847.34;;;18.99;94.86
71785;BME280;59633;52.266;5.134;2022-08-01T01:02:36;101849.53;;;19.02;95.13
71785;BME280;59633;52.266;5.134;2022-08-01T01:05:01;101847.09;;;19.01;94.84
71785;BME280;59633;52.266;5.134;2022-08-01T01:10:30;101845.00;;;19.03;94.86
71785;BME280;59633;52.266;5.134;2022-08-01T01:13:11;101842.59;;;19.01;94.81
71785;BME280;59633;52.266;5.134;2022-08-01T01:15:41;101839.94;;;19.01;95.02
71785;BME280;59633;52.266;5.134;2022-08-01T01:20:39;101836.22;;;19.02;95.49
71785;BME280;59633;52.266;5.134;2022-08-01T01:31:06;101834.34;;;19.03;95.35
71785;BME280;59633;52.266;5.134;2022-08-01T01:33:34;101830.88;;;19.02;95.61
71785;BME280;59633;52.266;5.134;2022-08-01T01:36:03;101831.38;;;18.99;95.38
71785;BME280;59633;52.266;5.134;2022-08-01T01:38:32;101834.34;;;19.03;94.92
71785;BME280;59633;52.266;5.134;2022-08-01T01:40:58;101833.53;;;19.02;95.18
71785;BME280;59633;52.266;5.134;2022-08-01T01:43:24;101837.59;;;19.05;95.18
71785;BME280;59633;52.266;5.134;2022-08-01T01:45:51;101834.13;;;19.04;95.53
71785;BME280;59633;52.266;5.134;2022-08-01T01:48:18;101841.31;;;19.04;95.44
71785;BME280;59633;52.266;5.134;2022-08-01T01:50:44;101839.69;;;19.03;95.73
71785;BME280;59633;52.266;5.134;2022-08-01T01:53:10;101841.31;;;19.04;95.41
71785;BME280;59633;52.266;5.134;2022-08-01T01:55:38;101841.31;;;19.04;95.53
71785;BME280;59633;52.266;5.134;2022-08-01T01:58:04;101851.47;;;19.07;94.89
71785;BME280;59633;52.266;5.134;2022-08-01T02:00:29;101842.09;;;19.04;95.34
71785;BME280;59633;52.266;5.134;2022-08-01T02:02:55;101835.97;;;19.04;96.04
71785;BME280;59633;52.266;5.134;2022-08-01T02:05:21;101837.84;;;19.03;95.79
71785;BME280;59633;52.266;5.134;2022-08-01T02:07:47;101842.34;;;19.03;95.69
71785;BME280;59633;52.266;5.134;2022-08-01T02:10:14;101844.78;;;19.04;95.94
71785;BME280;59633;52.266;5.134;2022-08-01T02:12:41;101853.56;;;19.05;95.88
71785;BME280;59633;52.266;5.134;2022-08-01T02:15:07;101846.16;;;19.07;95.58
71785;BME280;59633;52.266;5.134;2022-08-01T02:17:34;101849.63;;;19.07;95.08
71785;BME280;59633;52.266;5.134;2022-08-01T02:20:02;101852.53;;;19.06;95.49
71785;BME280;59633;52.266;5.134;2022-08-01T02:22:32;101852.88;;;19.09;95.01
71785;BME280;59633;52.266;5.134;2022-08-01T02:24:59;101851.59;;;19.12;94.04
71785;BME280;59633;52.266;5.134;2022-08-01T02:27:28;101854.97;;;19.07;94.89
71785;BME280;59633;52.266;5.134;2022-08-01T02:29:58;101857.63;;;19.07;94.81
71785;BME280;59633;52.266;5.134;2022-08-01T02:32:25;101860.03;;;19.09;94.86
71785;BME280;59633;52.266;5.134;2022-08-01T02:34:52;101861.09;;;19.08;94.24
71785;BME280;59633;52.266;5.134;2022-08-01T02:37:18;101851.16;;;19.03;95.45
71785;BME280;59633;52.266;5.134;2022-08-01T02:39:44;101856.72;;;19.02;95.14
71785;BME280;59633;52.266;5.134;2022-08-01T02:42:12;101865.72;;;19.01;95.00
71785;BME280;59633;52.266;5.134;2022-08-01T02:44:39;101860.09;;;18.97;95.05
71785;BME280;59633;52.266;5.134;2022-08-01T02:47:06;101855.81;;;18.96;95.13
71785;BME280;59633;52.266;5.134;2022-08-01T02:49:33;101856.38;;;18.98;94.96
71785;BME280;59633;52.266;5.134;2022-08-01T02:51:59;101859.25;;;18.97;94.80
71785;BME280;59633;52.266;5.134;2022-08-01T02:54:26;101855.56;;;18.98;94.30
71785;BME280;59633;52.266;5.134;2022-08-01T02:56:52;101848.97;;;19.00;93.97
71785;BME280;59633;52.266;5.134;2022-08-01T02:59:19;101852.69;;;18.99;94.05
71785;BME280;59633;52.266;5.134;2022-08-01T03:01:46;101847.94;;;19.01;93.77
71785;BME280;59633;52.266;5.134;2022-08-01T03:04:12;101848.16;;;19.00;93.73
71785;BME280;59633;52.266;5.134;2022-08-01T03:06:39;101852.69;;;18.99;93.59
71785;BME280;59633;52.266;5.134;2022-08-01T03:09:06;101851.38;;;19.02;92.96
71785;BME280;59633;52.266;5.134;2022-08-01T03:11:31;101850.59;;;19.01;92.95
71785;BME280;59633;52.266;5.134;2022-08-01T03:13:59;101855.81;;;18.96;93.76
71785;BME280;59633;52.266;5.134;2022-08-01T03:16:24;101861.59;;;18.93;93.45
71785;BME280;59633;52.266;5.134;2022-08-01T03:18:51;101858.13;;;18.93;92.98
71785;BME280;59633;52.266;5.134;2022-08-01T03:21:18;101860.22;;;18.90;93.12
71785;BME280;59633;52.266;5.134;2022-08-01T03:23:44;101867.06;;;18.86;93.52
71785;BME280;59633;52.266;5.134;2022-08-01T03:26:10;101861.50;;;18.76;94.18
71785;BME280;59633;52.266;5.134;2022-08-01T03:28:36;101869.06;;;18.79;93.90
71785;BME280;59633;52.266;5.134;2022-08-01T03:31:03;101874.00;;;18.76;93.59
71785;BME280;59633;52.266;5.134;2022-08-01T03:33:28;101866.03;;;18.76;93.19
71785;BME280;59633;52.266;5.134;2022-08-01T03:35:54;101868.78;;;18.69;94.38
71785;BME280;59633;52.266;5.134;2022-08-01T03:38:22;101871.13;;;18.65;94.25
71785;BME280;59633;52.266;5.134;2022-08-01T03:40:58;101872.53;;;18.56;94.48
71785;BME280;59633;52.266;5.134;2022-08-01T03:43:32;101872.38;;;18.63;93.42
71785;BME280;59633;52.266;5.134;2022-08-01T03:46:01;101876.56;;;18.59;93.62
71785;BME280;59633;52.266;5.134;2022-08-01T03:48:29;101877.97;;;18.49;94.48
71785;BME280;59633;52.266;5.134;2022-08-01T03:50:57;101877.63;;;18.58;93.29
71785;BME280;59633;52.266;5.134;2022-08-01T03:53:24;101878.41;;;18.58;93.23
71785;BME280;59633;52.266;5.134;2022-08-01T03:55:50;101881.78;;;18.65;92.08
71785;BME280;59633;52.266;5.134;2022-08-01T03:58:17;101874.72;;;18.59;92.94
71785;BME280;59633;52.266;5.134;2022-08-01T04:00:43;101878.88;;;18.55;93.43
71785;BME280;59633;52.266;5.134;2022-08-01T04:03:09;101874.97;;;18.58;93.58
71785;BME280;59633;52.266;5.134;2022-08-01T04:05:35;101875.06;;;18.51;94.07
71785;BME280;59633;52.266;5.134;2022-08-01T04:08:00;101879.81;;;18.49;93.70
71785;BME280;59633;52.266;5.134;2022-08-01T04:10:27;101883.06;;;18.39;94.84
71785;BME280;59633;52.266;5.134;2022-08-01T04:12:52;101881.66;;;18.37;94.96
71785;BME280;59633;52.266;5.134;2022-08-01T04:15:17;101888.13;;;18.52;92.93
71785;BME280;59633;52.266;5.134;2022-08-01T04:17:43;101881.91;;;18.11;96.04
71785;BME280;59633;52.266;5.134;2022-08-01T04:20:08;101885.25;;;18.19;97.81
71785;BME280;59633;52.266;5.134;2022-08-01T04:22:34;101895.31;;;18.17;97.38
71785;BME280;59633;52.266;5.134;2022-08-01T04:25:01;101892.19;;;18.20;95.20
71785;BME280;59633;52.266;5.134;2022-08-01T04:27:32;101893.81;;;18.21;95.44
71785;BME280;59633;52.266;5.134;2022-08-01T04:30:00;101892.44;;;18.18;96.37
71785;BME280;59633;52.266;5.134;2022-08-01T04:32:26;101883.66;;;18.18;96.47
71785;BME280;59633;52.266;5.134;2022-08-01T04:34:53;101883.38;;;18.19;96.19
71785;BME280;59633;52.266;5.134;2022-08-01T04:37:20;101889.41;;;18.15;97.25
71785;BME280;59633;52.266;5.134;2022-08-01T04:39:47;101890.47;;;18.14;97.24
71785;BME280;59633;52.266;5.134;2022-08-01T04:42:13;101888.03;;;18.12;97.70
71785;BME280;59633;52.266;5.134;2022-08-01T04:44:39;101893.13;;;18.14;98.12
71785;BME280;59633;52.266;5.134;2022-08-01T04:47:05;101897.97;;;18.17;98.07
71785;BME280;59633;52.266;5.134;2022-08-01T04:49:32;101903.06;;;18.18;98.38
71785;BME280;59633;52.266;5.134;2022-08-01T04:51:58;101904.22;;;18.22;97.71
71785;BME280;59633;52.266;5.134;2022-08-01T04:54:26;101916.25;;;18.25;97.88
71785;BME280;59633;52.266;5.134;2022-08-01T04:56:51;101909.91;;;18.26;97.29
71785;BME280;59633;52.266;5.134;2022-08-01T04:59:18;101908.75;;;18.22;98.04
71785;BME280;59633;52.266;5.134;2022-08-01T05:02:02;101914.41;;;18.25;98.21
71785;BME280;59633;52.266;5.134;2022-08-01T05:04:28;101905.97;;;18.28;98.33
71785;BME280;59633;52.266;5.134;2022-08-01T05:06:53;101907.91;;;18.33;97.25
71785;BME280;59633;52.266;5.134;2022-08-01T05:09:18;101916.84;;;18.39;95.54
71785;BME280;59633;52.266;5.134;2022-08-01T05:11:43;101917.66;;;18.39;96.54
71785;BME280;59633;52.266;5.134;2022-08-01T05:14:08;101906.53;;;18.42;95.27
71785;BME280;59633;52.266;5.134;2022-08-01T05:16:34;101914.31;;;18.44;96.27
71785;BME280;59633;52.266;5.134;2022-08-01T05:18:59;101911.28;;;18.40;97.06
71785;BME280;59633;52.266;5.134;2022-08-01T05:21:24;101916.47;;;18.47;96.03
71785;BME280;59633;52.266;5.134;2022-08-01T05:23:49;101922.28;;;18.44;97.12
71785;BME280;59633;52.266;5.134;2022-08-01T05:26:14;101918.34;;;18.46;96.76
71785;BME280;59633;52.266;5.134;2022-08-01T05:28:40;101923.44;;;18.48;96.52
71785;BME280;59633;52.266;5.134;2022-08-01T05:31:05;101918.22;;;18.53;96.05
71785;BME280;59633;52.266;5.134;2022-08-01T05:33:30;101923.66;;;18.58;95.59
71785;BME280;59633;52.266;5.134;2022-08-01T05:35:55;101930.16;;;18.50;96.19
71785;BME280;59633;52.266;5.134;2022-08-01T05:38:20;101932.09;;;18.55;95.87
71785;BME280;59633;52.266;5.134;2022-08-01T05:40:46;101933.97;;;18.55;95.99
71785;BME280;59633;52.266;5.134;2022-08-01T05:43:11;101934.09;;;18.60;96.38
71785;BME280;59633;52.266;5.134;2022-08-01T05:45:36;101924.47;;;18.59;96.19
71785;BME280;59633;52.266;5.134;2022-08-01T05:48:01;101936.53;;;18.61;95.05
71785;BME280;59633;52.266;5.134;2022-08-01T05:50:27;101938.59;;;18.59;94.65
71785;BME280;59633;52.266;5.134;2022-08-01T05:52:52;101942.75;;;18.55;95.00
71785;BME280;59633;52.266;5.134;2022-08-01T05:55:17;101941.72;;;18.56;95.37
71785;BME280;59633;52.266;5.134;2022-08-01T05:57:42;101944.97;;;18.58;94.54
71785;BME280;59633;52.266;5.134;2022-08-01T06:00:07;101946.00;;;18.57;94.99
71785;BME280;59633;52.266;5.134;2022-08-01T06:02:33;101955.16;;;18.49;94.67
71785;BME280;59633;52.266;5.134;2022-08-01T06:04:58;101950.25;;;18.35;94.30
71785;BME280;59633;52.266;5.134;2022-08-01T06:07:23;101953.63;;;18.42;94.12
71785;BME280;59633;52.266;5.134;2022-08-01T06:09:48;101961.84;;;18.40;93.56
71785;BME280;59633;52.266;5.134;2022-08-01T06:12:14;101964.84;;;18.44;92.75
71785;BME280;59633;52.266;5.134;2022-08-01T06:14:39;101966.44;;;18.33;93.11
71785;BME280;59633;52.266;5.134;2022-08-01T06:17:04;101969.00;;;18.28;93.42
71785;BME280;59633;52.266;5.134;2022-08-01T06:19:31;101969.38;;;18.31;93.16
71785;BME280;59633;52.266;5.134;2022-08-01T06:21:56;101967.38;;;18.39;93.79
71785;BME280;59633;52.266;5.134;2022-08-01T06:24:21;101970.28;;;18.37;92.94
71785;BME280;59633;52.266;5.134;2022-08-01T06:26:48;101973.75;;;18.38;92.90
71785;BME280;59633;52.266;5.134;2022-08-01T06:29:14;101972.47;;;18.28;92.62
71785;BME280;59633;52.266;5.134;2022-08-01T06:31:39;101970.16;;;18.32;92.72
71785;BME280;59633;52.266;5.134;2022-08-01T06:34:04;101966.59;;;18.38;91.84
71785;BME280;59633;52.266;5.134;2022-08-01T06:36:29;101963.56;;;18.35;92.83
71785;BME280;59633;52.266;5.134;2022-08-01T06:38:54;101967.53;;;18.44;92.65
71785;BME280;59633;52.266;5.134;2022-08-01T06:41:20;101973.41;;;18.46;91.13
71785;BME280;59633;52.266;5.134;2022-08-01T06:43:45;101974.78;;;18.37;92.13
71785;BME280;59633;52.266;5.134;2022-08-01T06:46:10;101986.56;;;18.29;90.20
71785;BME280;59633;52.266;5.134;2022-08-01T06:48:35;101989.44;;;18.16;88.95
71785;BME280;59633;52.266;5.134;2022-08-01T06:51:04;101983.09;;;18.28;89.12
71785;BME280;59633;52.266;5.134;2022-08-01T06:53:38;101990.28;;;18.28;89.04
71785;BME280;59633;52.266;5.134;2022-08-01T06:56:04;101993.06;;;18.33;88.65
71785;BME280;59633;52.266;5.134;2022-08-01T06:58:29;101994.66;;;18.22;86.62
71785;BME280;59633;52.266;5.134;2022-08-01T07:00:55;102000.56;;;18.24;86.54
71785;BME280;59633;52.266;5.134;2022-08-01T07:03:20;102001.16;;;18.26;84.96
71785;BME280;59633;52.266;5.134;2022-08-01T07:05:45;101999.09;;;18.40;84.74
71785;BME280;59633;52.266;5.134;2022-08-01T07:08:10;102005.47;;;18.39;81.52
71785;BME280;59633;52.266;5.134;2022-08-01T07:10:36;102001.97;;;18.39;80.92
71785;BME280;59633;52.266;5.134;2022-08-01T07:13:01;102010.50;;;18.29;80.53
71785;BME280;59633;52.266;5.134;2022-08-01T07:15:26;102012.84;;;18.37;77.41
71785;BME280;59633;52.266;5.134;2022-08-01T07:17:52;102007.44;;;18.56;79.07
71785;BME280;59633;52.266;5.134;2022-08-01T07:20:17;102005.97;;;18.71;78.64
71785;BME280;59633;52.266;5.134;2022-08-01T07:22:43;102018.91;;;18.56;76.67
71785;BME280;59633;52.266;5.134;2022-08-01T07:25:08;102014.22;;;18.82;79.10
71785;BME280;59633;52.266;5.134;2022-08-01T07:27:33;102013.50;;;18.86;78.39
71785;BME280;59633;52.266;5.134;2022-08-01T07:29:59;102014.88;;;18.77;77.67
71785;BME280;59633;52.266;5.134;2022-08-01T07:32:24;102014.56;;;18.97;79.15
71785;BME280;59633;52.266;5.134;2022-08-01T07:34:50;102011.66;;;18.99;76.68
71785;BME280;59633;52.266;5.134;2022-08-01T07:37:15;102017.09;;;18.92;75.98
71785;BME280;59633;52.266;5.134;2022-08-01T07:39:40;102023.00;;;19.06;77.53
71785;BME280;59633;52.266;5.134;2022-08-01T07:42:05;102024.00;;;19.17;77.09
71785;BME280;59633;52.266;5.134;2022-08-01T07:44:31;102028.69;;;19.09;76.11
71785;BME280;59633;52.266;5.134;2022-08-01T07:46:56;102022.56;;;18.97;74.87
71785;BME280;59633;52.266;5.134;2022-08-01T07:49:21;102034.94;;;19.03;75.11
71785;BME280;59633;52.266;5.134;2022-08-01T07:51:47;102027.88;;;18.97;73.68
71785;BME280;59633;52.266;5.134;2022-08-01T07:54:12;102033.84;;;19.28;74.60
71785;BME280;59633;52.266;5.134;2022-08-01T07:56:37;102042.56;;;19.35;74.50
71785;BME280;59633;52.266;5.134;2022-08-01T07:59:02;102035.94;;;19.38;72.26
71785;BME280;59633;52.266;5.134;2022-08-01T08:01:27;102042.31;;;19.25;71.26
71785;BME280;59633;52.266;5.134;2022-08-01T08:03:53;102036.97;;;19.37;71.57
71785;BME280;59633;52.266;5.134;2022-08-01T08:06:18;102047.75;;;19.30;70.02
71785;BME280;59633;52.266;5.134;2022-08-01T08:08:43;102041.72;;;19.35;70.37
71785;BME280;59633;52.266;5.134;2022-08-01T08:11:08;102046.69;;;19.31;69.82
71785;BME280;59633;52.266;5.134;2022-08-01T08:13:34;102047.25;;;19.45;70.43
71785;BME280;59633;52.266;5.134;2022-08-01T08:15:59;102044.81;;;19.55;68.60
71785;BME280;59633;52.266;5.134;2022-08-01T08:18:24;102052.75;;;19.67;71.01
71785;BME280;59633;52.266;5.134;2022-08-01T08:20:50;102046.41;;;19.80;69.09
71785;BME280;59633;52.266;5.134;2022-08-01T08:23:15;102050.59;;;19.76;69.23
71785;BME280;59633;52.266;5.134;2022-08-01T08:25:59;102055.88;;;19.87;68.68
71785;BME280;59633;52.266;5.134;2022-08-01T08:28:24;102062.00;;;19.88;69.29
71785;BME280;59633;52.266;5.134;2022-08-01T08:30:49;102064.13;;;19.86;68.52
71785;BME280;59633;52.266;5.134;2022-08-01T08:33:14;102059.38;;;20.05;69.10
71785;BME280;59633;52.266;5.134;2022-08-01T08:35:40;102067.38;;;20.05;67.08
71785;BME280;59633;52.266;5.134;2022-08-01T08:38:08;102061.63;;;19.96;67.98
71785;BME280;59633;52.266;5.134;2022-08-01T08:40:34;102069.97;;;20.00;68.82
71785;BME280;59633;52.266;5.134;2022-08-01T08:43:00;102065.03;;;19.92;68.75
71785;BME280;59633;52.266;5.134;2022-08-01T08:45:26;102064.41;;;20.01;68.01
71785;BME280;59633;52.266;5.134;2022-08-01T08:47:51;102069.47;;;20.03;67.83
71785;BME280;59633;52.266;5.134;2022-08-01T08:50:17;102076.91;;;20.01;67.70
71785;BME280;59633;52.266;5.134;2022-08-01T08:52:42;102075.34;;;20.17;68.55
71785;BME280;59633;52.266;5.134;2022-08-01T08:55:08;102070.31;;;20.03;67.30
71785;BME280;59633;52.266;5.134;2022-08-01T08:57:36;102066.94;;;20.25;67.58
71785;BME280;59633;52.266;5.134;2022-08-01T09:00:04;102074.47;;;20.11;66.48
71785;BME280;59633;52.266;5.134;2022-08-01T09:02:29;102065.97;;;20.14;66.77
71785;BME280;59633;52.266;5.134;2022-08-01T09:04:55;102067.66;;;20.20;67.59
71785;BME280;59633;52.266;5.134;2022-08-01T09:07:20;102070.84;;;20.34;68.66
71785;BME280;59633;52.266;5.134;2022-08-01T09:09:45;102081.38;;;20.41;68.28
71785;BME280;59633;52.266;5.134;2022-08-01T09:12:15;102091.81;;;20.42;68.18
71785;BME280;59633;52.266;5.134;2022-08-01T09:14:45;102094.31;;;20.32;67.61
71785;BME280;59633;52.266;5.134;2022-08-01T09:17:10;102088.69;;;20.45;68.13
71785;BME280;59633;52.266;5.134;2022-08-01T09:19:38;102088.28;;;20.54;66.82
71785;BME280;59633;52.266;5.134;2022-08-01T09:22:06;102095.34;;;20.60;64.66
71785;BME280;59633;52.266;5.134;2022-08-01T09:24:32;102098.41;;;20.68;65.25
71785;BME280;59633;52.266;5.134;2022-08-01T09:26:58;102092.69;;;20.60;67.28
71785;BME280;59633;52.266;5.134;2022-08-01T09:29:27;102094.53;;;20.76;66.78
71785;BME280;59633;52.266;5.134;2022-08-01T09:31:53;102089.69;;;20.90;66.49
71785;BME280;59633;52.266;5.134;2022-08-01T09:34:25;102107.16;;;20.98;64.51
71785;BME280;59633;52.266;5.134;2022-08-01T09:36:54;102104.41;;;21.09;65.38
71785;BME280;59633;52.266;5.134;2022-08-01T09:39:22;102105.34;;;21.20;64.28
71785;BME280;59633;52.266;5.134;2022-08-01T09:41:47;102108.38;;;21.07;64.18
71785;BME280;59633;52.266;5.134;2022-08-01T09:44:13;102115.91;;;20.93;64.22
71785;BME280;59633;52.266;5.134;2022-08-01T09:46:48;102115.41;;;20.96;64.15
71785;BME280;59633;52.266;5.134;2022-08-01T09:49:14;102118.25;;;20.89;63.82
71785;BME280;59633;52.266;5.134;2022-08-01T09:51:39;102120.03;;;20.67;64.79
71785;BME280;59633;52.266;5.134;2022-08-01T09:54:05;102117.13;;;20.68;63.99
71785;BME280;59633;52.266;5.134;2022-08-01T09:56:38;102115.44;;;20.79;64.32
71785;BME280;59633;52.266;5.134;2022-08-01T09:59:03;102121.75;;;20.90;64.35
71785;BME280;59633;52.266;5.134;2022-08-01T10:01:39;102119.88;;;20.91;64.38
71785;BME280;59633;52.266;5.134;2022-08-01T10:04:07;102119.94;;;21.13;63.78
71785;BME280;59633;52.266;5.134;2022-08-01T10:06:32;102123.03;;;21.04;63.58
71785;BME280;59633;52.266;5.134;2022-08-01T10:08:57;102124.16;;;21.08;63.33
71785;BME280;59633;52.266;5.134;2022-08-01T10:11:22;102121.28;;;21.32;62.87
71785;BME280;59633;52.266;5.134;2022-08-01T10:13:48;102117.81;;;21.15;63.74
71785;BME280;59633;52.266;5.134;2022-08-01T10:16:13;102124.88;;;21.04;62.99
71785;BME280;59633;52.266;5.134;2022-08-01T10:18:39;102128.13;;;21.06;61.64
71785;BME280;59633;52.266;5.134;2022-08-01T10:21:05;102129.00;;;20.95;61.31
71785;BME280;59633;52.266;5.134;2022-08-01T10:23:33;102130.75;;;21.01;61.83
71785;BME280;59633;52.266;5.134;2022-08-01T10:26:00;102132.59;;;21.00;61.42
71785;BME280;59633;52.266;5.134;2022-08-01T10:28:27;102131.09;;;21.26;62.36
71785;BME280;59633;52.266;5.134;2022-08-01T10:30:54;102131.00;;;21.38;61.83
71785;BME280;59633;52.266;5.134;2022-08-01T10:33:21;102131.16;;;21.48;55.32
71785;BME280;59633;52.266;5.134;2022-08-01T10:35:47;102130.13;;;21.72;58.94
71785;BME280;59633;52.266;5.134;2022-08-01T10:38:12;102128.03;;;21.74;57.07
71785;BME280;59633;52.266;5.134;2022-08-01T10:40:38;102125.84;;;21.71;58.36
71785;BME280;59633;52.266;5.134;2022-08-01T10:43:04;102120.13;;;21.62;57.59
71785;BME280;59633;52.266;5.134;2022-08-01T10:45:29;102120.78;;;21.52;56.79
71785;BME280;59633;52.266;5.134;2022-08-01T10:53:20;102132.94;;;21.60;57.58
71785;BME280;59633;52.266;5.134;2022-08-01T10:56:04;102129.25;;;21.66;57.55
71785;BME280;59633;52.266;5.134;2022-08-01T10:58:31;102139.09;;;21.82;57.27
71785;BME280;59633;52.266;5.134;2022-08-01T11:06:23;102133.56;;;21.89;56.76
71785;BME280;59633;52.266;5.134;2022-08-01T11:08:53;102132.44;;;21.85;57.00
71785;BME280;59633;52.266;5.134;2022-08-01T11:11:19;102141.28;;;21.85;56.50
71785;BME280;59633;52.266;5.134;2022-08-01T11:16:26;102144.63;;;21.76;55.67
71785;BME280;59633;52.266;5.134;2022-08-01T11:18:52;102156.22;;;21.81;53.82
71785;BME280;59633;52.266;5.134;2022-08-01T11:21:17;102149.88;;;21.87;53.57
71785;BME280;59633;52.266;5.134;2022-08-01T11:23:47;102146.19;;;21.94;54.73
71785;BME280;59633;52.266;5.134;2022-08-01T11:26:13;102144.94;;;22.01;53.13
71785;BME280;59633;52.266;5.134;2022-08-01T11:28:39;102140.88;;;22.21;52.95
71785;BME280;59633;52.266;5.134;2022-08-01T11:38:36;102150.06;;;22.25;53.71
71785;BME280;59633;52.266;5.134;2022-08-01T11:44:01;102136.72;;;22.30;53.30
71785;BME280;59633;52.266;5.134;2022-08-01T11:49:30;102143.63;;;22.26;52.87
71785;BME280;59633;52.266;5.134;2022-08-01T11:54:29;102136.03;;;22.18;52.34
71785;BME280;59633;52.266;5.134;2022-08-01T11:56:55;102154.66;;;22.30;51.51
71785;BME280;59633;52.266;5.134;2022-08-01T11:59:21;102152.38;;;22.43;52.14
71785;BME280;59633;52.266;5.134;2022-08-01T12:01:46;102143.41;;;22.60;52.61
71785;BME280;59633;52.266;5.134;2022-08-01T12:04:11;102151.00;;;22.68;51.43
71785;BME280;59633;52.266;5.134;2022-08-01T12:06:36;102147.66;;;22.56;51.13
71785;BME280;59633;52.266;5.134;2022-08-01T12:09:14;102150.16;;;22.35;52.21
71785;BME280;59633;52.266;5.134;2022-08-01T12:11:39;102146.78;;;22.45;51.07
71785;BME280;59633;52.266;5.134;2022-08-01T12:14:04;102147.91;;;22.54;50.19
71785;BME280;59633;52.266;5.134;2022-08-01T12:16:31;102151.69;;;22.58;51.13
71785;BME280;59633;52.266;5.134;2022-08-01T12:18:57;102151.28;;;22.17;51.99
71785;BME280;59633;52.266;5.134;2022-08-01T12:21:22;102144.19;;;22.55;52.07
71785;BME280;59633;52.266;5.134;2022-08-01T12:23:59;102139.41;;;22.62;51.49
71785;BME280;59633;52.266;5.134;2022-08-01T12:26:38;102143.47;;;22.65;51.14
71785;BME280;59633;52.266;5.134;2022-08-01T12:29:03;102154.09;;;22.87;50.72
71785;BME280;59633;52.266;5.134;2022-08-01T12:31:32;102150.31;;;22.83;48.82
71785;BME280;59633;52.266;5.134;2022-08-01T12:33:57;102149.78;;;22.81;46.09
71785;BME280;59633;52.266;5.134;2022-08-01T12:36:29;102156.66;;;22.72;47.56
71785;BME280;59633;52.266;5.134;2022-08-01T12:38:54;102152.22;;;22.87;48.93
71785;BME280;59633;52.266;5.134;2022-08-01T12:41:21;102158.13;;;22.90;46.24
71785;BME280;59633;52.266;5.134;2022-08-01T12:43:47;102153.19;;;23.03;46.27
71785;BME280;59633;52.266;5.134;2022-08-01T12:46:12;102150.91;;;22.90;46.31
71785;BME280;59633;52.266;5.134;2022-08-01T12:48:42;102149.03;;;22.58;46.06
71785;BME280;59633;52.266;5.134;2022-08-01T12:51:07;102149.16;;;22.74;46.93
71785;BME280;59633;52.266;5.134;2022-08-01T12:53:34;102150.69;;;22.64;47.60
71785;BME280;59633;52.266;5.134;2022-08-01T12:56:00;102152.88;;;22.67;48.38
71785;BME280;59633;52.266;5.134;2022-08-01T12:58:31;102155.41;;;22.84;47.94
71785;BME280;59633;52.266;5.134;2022-08-01T13:01:04;102149.63;;;22.65;48.58
71785;BME280;59633;52.266;5.134;2022-08-01T13:03:29;102147.13;;;22.86;48.00
71785;BME280;59633;52.266;5.134;2022-08-01T13:05:57;102160.31;;;22.33;48.38
71785;BME280;59633;52.266;5.134;2022-08-01T13:08:33;102148.63;;;22.72;48.26
71785;BME280;59633;52.266;5.134;2022-08-01T13:11:08;102144.06;;;22.72;49.42
71785;BME280;59633;52.266;5.134;2022-08-01T13:13:38;102151.75;;;22.63;47.57
71785;BME280;59633;52.266;5.134;2022-08-01T13:16:04;102153.63;;;22.63;47.18
71785;BME280;59633;52.266;5.134;2022-08-01T13:18:33;102156.31;;;22.63;49.67
71785;BME280;59633;52.266;5.134;2022-08-01T13:21:14;102154.44;;;22.63;46.07
71785;BME280;59633;52.266;5.134;2022-08-01T13:23:41;102152.22;;;22.55;46.86
71785;BME280;59633;52.266;5.134;2022-08-01T13:26:06;102152.16;;;22.50;48.46
71785;BME280;59633;52.266;5.134;2022-08-01T13:28:32;102151.28;;;22.39;48.58
71785;BME280;59633;52.266;5.134;2022-08-01T13:31:02;102155.44;;;22.30;48.08